Main page
METAR-TAF:

METAR-TAF

Airports :

Gwadar International Airport

Gwadar, Pakistan

latitude: 25-13-59N, longitude: 062-19-46E, elevation: 29 m

METAR: missing

Time: 22:49 (17:49 UTC)

Forecast

The report was made 2 hours and 19 minutes ago, at 15:30 UTC
Forecast valid from 15 at 18 UTC to 16 at 18 UTC
Wind 3 kt from variable directions
Visibility: 3000 m
Scattered clouds at a height of 2000 ft
smoke
Temporary
from 16 at 00 UTC to 16 at 04 UTC
Wind kt from the North
Visibility: 1500 m
Scattered clouds at a height of 2000 ft
mist
From UTC
Wind 5 kt from the West with gusts up to 15 kt
Visibility: 5000 m
Scattered clouds at a height of 3000 ft
haze

TAF: OPGD 151530Z 1518/1618 VRB03KT 3000 FU SCT020 TEMPO 1600/1604 00000KT 1500 BR SCT020 FM 160600 26005G15KT 5000 HZ SCT030

Weather observations and forecasts of more than 4000 airports (METAR and TAF reports).

The available stations are represented by yellow and red dots on the map.

Hover mouse over dot to see the name of the station.

Then click to see weather observations and forecasts.

To change the map : click on the green buttons with a black cross to zoom in, on the green button with a dash to zoom out, or on the green arrows for adjacent maps.


METAR-TAF: